createdAt,value
2018-06-09T00:01:02.900Z,13.60
2018-06-09T00:03:31.953Z,10.07
2018-06-09T00:06:01.038Z,7.20
2018-06-09T00:08:30.052Z,9.60
2018-06-09T00:10:59.881Z,12.50
2018-06-09T00:13:29.078Z,8.20
2018-06-09T00:15:58.115Z,8.70
2018-06-09T00:18:30.033Z,13.00
2018-06-09T00:20:59.074Z,7.90
2018-06-09T00:23:28.192Z,11.70
2018-06-09T00:25:57.282Z,17.87
2018-06-09T00:28:26.357Z,9.00
2018-06-09T00:30:55.988Z,16.37
2018-06-09T00:33:25.084Z,15.13
2018-06-09T00:35:54.211Z,14.13
2018-06-09T00:38:23.249Z,15.17
2018-06-09T00:40:53.029Z,15.40
2018-06-09T00:43:22.594Z,9.77
2018-06-09T00:45:51.417Z,11.47
2018-06-09T00:48:21.599Z,11.43
2018-06-09T00:50:50.670Z,15.83
2018-06-09T00:53:20.212Z,11.40
2018-06-09T00:55:49.292Z,16.80
2018-06-09T00:58:18.914Z,7.53
2018-06-09T01:00:47.984Z,15.30
2018-06-09T01:03:17.748Z,8.90
2018-06-09T01:05:46.904Z,9.80
2018-06-09T01:08:15.770Z,20.47
2018-06-09T01:10:44.907Z,9.10
2018-06-09T01:13:14.493Z,13.97
2018-06-09T01:15:43.456Z,15.70
2018-06-09T01:18:12.477Z,8.78
2018-06-09T01:20:41.444Z,12.33
2018-06-09T01:23:10.668Z,7.67
2018-06-09T01:25:39.745Z,18.20
2018-06-09T01:28:09.384Z,13.23
2018-06-09T01:30:38.436Z,15.38
2018-06-09T01:33:07.497Z,11.40
2018-06-09T01:35:36.535Z,8.00
2018-06-09T01:38:05.632Z,13.70
2018-06-09T01:40:34.715Z,12.27
2018-06-09T01:43:04.367Z,11.17
2018-06-09T01:45:33.483Z,12.60
2018-06-09T01:48:02.628Z,13.80
2018-06-09T01:50:32.096Z,11.00
2018-06-09T01:53:01.366Z,28.07
2018-06-09T01:55:30.849Z,11.47
2018-06-09T01:58:00.401Z,15.60
2018-06-09T02:00:30.250Z,14.07
2018-06-09T02:02:59.367Z,12.70
2018-06-09T02:05:28.840Z,10.88
2018-06-09T02:07:58.060Z,28.53
2018-06-09T02:10:27.156Z,26.67
2018-06-09T02:12:56.141Z,11.05
2018-06-09T02:15:25.259Z,9.33
2018-06-09T02:17:54.239Z,15.60
2018-06-09T02:20:23.591Z,9.60
2018-06-09T02:22:52.851Z,19.10
2018-06-09T02:25:21.941Z,12.07
2018-06-09T02:27:50.905Z,24.83
2018-06-09T02:30:19.905Z,14.80
2018-06-09T02:32:49.020Z,43.52
2018-06-09T02:35:18.091Z,22.50
2018-06-09T02:37:47.554Z,15.60
2018-06-09T02:40:16.580Z,15.55
2018-06-09T02:42:45.852Z,19.45
2018-06-09T02:45:15.493Z,21.85
2018-06-09T02:47:44.500Z,12.53
2018-06-09T02:50:13.505Z,14.50
2018-06-09T02:52:42.475Z,20.55
2018-06-09T02:55:11.614Z,17.80
2018-06-09T02:57:40.666Z,18.85
2018-06-09T03:00:10.013Z,22.48
2018-06-09T03:02:39.497Z,23.35
2018-06-09T03:05:08.873Z,18.60
2018-06-09T03:07:37.889Z,17.15
2018-06-09T03:10:06.981Z,28.35
2018-06-09T03:12:36.077Z,26.97
2018-06-09T03:15:05.165Z,22.22
2018-06-09T03:17:34.809Z,23.95
2018-06-09T03:20:03.884Z,24.70
2018-06-09T03:22:33.180Z,26.33
2018-06-09T03:25:02.599Z,28.55
2018-06-09T03:27:31.647Z,31.65
2018-06-09T03:30:01.004Z,36.15
2018-06-09T03:32:30.063Z,40.63
2018-06-09T03:34:59.508Z,26.57
2018-06-09T03:37:28.545Z,30.10
2018-06-09T03:39:57.448Z,39.92
2018-06-09T03:42:26.440Z,33.63
2018-06-09T03:44:55.417Z,25.25
2018-06-09T03:47:24.531Z,26.20
2018-06-09T03:49:54.370Z,24.60
2018-06-09T03:52:23.829Z,32.97
2018-06-09T03:54:53.047Z,28.00
2018-06-09T03:57:22.620Z,22.63
2018-06-09T03:59:52.116Z,25.73
2018-06-09T04:02:21.230Z,27.83
2018-06-09T04:04:50.361Z,27.03
2018-06-09T04:07:19.436Z,30.57
2018-06-09T04:09:49.136Z,28.62
2018-06-09T04:12:18.248Z,32.67
2018-06-09T04:14:47.324Z,28.80
2018-06-09T04:17:16.770Z,21.25
2018-06-09T04:19:46.284Z,30.68
2018-06-09T04:22:15.301Z,23.70
2018-06-09T04:24:44.316Z,21.02
2018-06-09T04:27:13.556Z,26.43
2018-06-09T04:29:43.602Z,21.12
2018-06-09T04:32:12.630Z,20.90
2018-06-09T04:34:42.927Z,27.23
2018-06-09T04:37:12.980Z,28.52
2018-06-09T04:39:42.093Z,35.80
2018-06-09T04:42:11.202Z,22.45
2018-06-09T04:44:40.243Z,18.87
2018-06-09T04:47:10.148Z,31.97
2018-06-09T04:49:39.657Z,26.03
2018-06-09T04:52:08.707Z,20.92
2018-06-09T04:54:38.570Z,22.30
2018-06-09T04:57:07.828Z,18.00
2018-06-09T04:59:37.597Z,26.00
2018-06-09T05:02:06.830Z,22.35
2018-06-09T05:04:35.903Z,23.60
2018-06-09T05:07:04.989Z,20.80
2018-06-09T05:09:34.012Z,17.27
2018-06-09T05:12:03.512Z,26.93
2018-06-09T05:14:32.360Z,25.50
2018-06-09T05:17:01.891Z,17.87
2018-06-09T05:19:31.409Z,21.70
2018-06-09T05:22:00.485Z,18.67
2018-06-09T05:24:29.677Z,16.00
2018-06-09T05:26:59.228Z,26.87
2018-06-09T05:29:28.369Z,19.47
2018-06-09T05:31:57.296Z,22.50
2018-06-09T05:34:26.552Z,19.83
2018-06-09T05:36:55.789Z,18.93
2018-06-09T05:39:24.964Z,19.83
2018-06-09T05:41:54.102Z,20.70
2018-06-09T05:44:23.468Z,26.00
2018-06-09T05:46:53.267Z,17.10
2018-06-09T05:49:22.706Z,16.67
2018-06-09T05:51:51.286Z,18.93
2018-06-09T05:54:21.098Z,15.47
2018-06-09T05:56:50.158Z,17.53
2018-06-09T05:59:19.267Z,14.03
2018-06-09T06:01:48.380Z,13.83
2018-06-09T06:04:17.472Z,29.57
2018-06-09T06:06:46.556Z,17.50
2018-06-09T06:09:15.648Z,17.70
2018-06-09T06:11:44.989Z,15.80
2018-06-09T06:14:14.221Z,13.90
2018-06-09T06:16:43.325Z,20.97
2018-06-09T06:19:13.678Z,13.57
2018-06-09T06:21:43.184Z,22.53
2018-06-09T06:24:12.320Z,12.80
2018-06-09T06:26:41.466Z,11.57
2018-06-09T06:29:11.193Z,12.57
2018-06-09T06:31:40.252Z,15.60
2018-06-09T06:34:10.641Z,12.60
2018-06-09T06:36:40.210Z,10.27
2018-06-09T06:39:10.008Z,22.73
2018-06-09T06:41:39.120Z,17.37
2018-06-09T06:44:08.176Z,12.57
2018-06-09T06:46:37.420Z,16.53
2018-06-09T06:49:07.091Z,14.57
2018-06-09T06:51:36.225Z,12.97
2018-06-09T06:54:05.373Z,13.90
2018-06-09T06:56:34.523Z,12.73
2018-06-09T06:59:04.992Z,18.83
2018-06-09T07:01:34.520Z,23.83
2018-06-09T07:04:03.532Z,16.83
2018-06-09T07:06:32.497Z,29.70
2018-06-09T07:09:02.269Z,19.53
2018-06-09T07:11:31.566Z,13.77
2018-06-09T07:14:01.562Z,13.53
2018-06-09T07:16:30.755Z,14.63
2018-06-09T07:19:00.244Z,15.70
2018-06-09T07:21:30.154Z,16.90
2018-06-09T07:23:59.361Z,11.27
2018-06-09T07:26:28.454Z,15.13
2018-06-09T07:28:57.524Z,12.50
2018-06-09T07:31:26.459Z,10.80
2018-06-09T07:33:55.508Z,18.00
2018-06-09T07:36:25.040Z,14.90
2018-06-09T07:38:54.135Z,11.40
2018-06-09T07:41:23.947Z,13.13
2018-06-09T07:43:53.045Z,15.57
2018-06-09T07:46:22.134Z,17.73
2018-06-09T07:48:51.445Z,17.63
2018-06-09T07:51:20.505Z,17.87
2018-06-09T07:53:49.592Z,14.60
2018-06-09T07:56:19.141Z,14.80
2018-06-09T07:58:48.122Z,14.17
2018-06-09T08:01:17.227Z,16.67
2018-06-09T08:03:46.317Z,17.20
2018-06-09T08:06:15.552Z,15.63
2018-06-09T08:08:44.800Z,15.80
2018-06-09T08:11:13.779Z,14.13
2018-06-09T08:13:43.012Z,17.43
2018-06-09T08:16:12.921Z,10.80
2018-06-09T08:18:41.921Z,14.23
2018-06-09T08:21:11.411Z,13.10
2018-06-09T08:23:40.616Z,12.40
2018-06-09T08:26:09.685Z,15.07
2018-06-09T08:28:38.698Z,16.30
2018-06-09T08:31:07.817Z,14.80
2018-06-09T08:33:37.787Z,11.43
2018-06-09T08:36:06.923Z,15.93
2018-06-09T08:38:36.919Z,13.90
2018-06-09T08:41:06.150Z,16.27
2018-06-09T08:43:35.852Z,13.20
2018-06-09T08:46:04.899Z,13.20
2018-06-09T08:48:34.788Z,14.90
2018-06-09T08:51:03.893Z,22.10
2018-06-09T08:53:32.936Z,11.83
2018-06-09T08:56:03.046Z,19.03
2018-06-09T08:58:32.148Z,15.20
2018-06-09T09:01:01.742Z,15.60
2018-06-09T09:03:30.880Z,11.23
2018-06-09T09:06:00.438Z,27.60
2018-06-09T09:08:29.965Z,14.37
2018-06-09T09:10:58.981Z,19.20
2018-06-09T09:13:28.159Z,16.33
2018-06-09T09:15:57.164Z,13.67
2018-06-09T09:18:26.201Z,20.60
2018-06-09T09:20:55.242Z,13.03
2018-06-09T09:23:24.316Z,15.47
2018-06-09T09:25:53.467Z,16.00
2018-06-09T09:28:22.500Z,17.63
2018-06-09T09:30:51.620Z,17.93
2018-06-09T09:33:21.077Z,15.77
2018-06-09T09:35:50.714Z,13.67
2018-06-09T09:38:19.732Z,14.40
2018-06-09T09:40:48.801Z,15.30
2018-06-09T09:43:17.916Z,22.23
2018-06-09T09:45:47.540Z,14.80
2018-06-09T09:48:16.367Z,19.50
2018-06-09T09:50:45.999Z,13.37
2018-06-09T09:53:15.780Z,14.03
2018-06-09T09:55:44.884Z,13.90
2018-06-09T09:58:14.028Z,17.47
2018-06-09T10:00:43.477Z,12.93
2018-06-09T10:03:14.275Z,12.10
2018-06-09T10:05:44.184Z,13.67
2018-06-09T10:08:13.343Z,17.73
2018-06-09T10:10:42.518Z,17.67
2018-06-09T10:13:11.540Z,17.63
2018-06-09T10:15:40.649Z,15.60
2018-06-09T10:18:09.664Z,16.17
2018-06-09T10:20:38.622Z,15.10
2018-06-09T10:23:07.667Z,16.70
2018-06-09T10:25:36.841Z,14.63
2018-06-09T10:28:05.897Z,19.40
2018-06-09T10:30:34.899Z,13.33
2018-06-09T10:33:03.993Z,13.20
2018-06-09T10:35:33.080Z,16.17
2018-06-09T10:38:02.725Z,15.07
2018-06-09T10:40:32.416Z,12.43
2018-06-09T10:43:01.872Z,14.47
2018-06-09T10:45:31.498Z,22.10
2018-06-09T10:48:00.589Z,13.73
2018-06-09T10:50:29.620Z,13.23
2018-06-09T10:52:58.690Z,12.80
2018-06-09T10:55:28.035Z,15.90
2018-06-09T10:57:56.974Z,12.60
2018-06-09T11:00:26.235Z,13.60
2018-06-09T11:02:56.102Z,13.27
2018-06-09T11:05:25.301Z,12.47
2018-06-09T11:07:54.405Z,16.10
2018-06-09T11:10:23.565Z,20.53
2018-06-09T11:12:53.207Z,10.83
2018-06-09T11:15:22.296Z,10.37
2018-06-09T11:17:51.415Z,11.80
2018-06-09T11:20:20.464Z,11.90
2018-06-09T11:22:49.723Z,12.33
2018-06-09T11:25:19.135Z,12.93
2018-06-09T11:27:48.166Z,13.47
2018-06-09T11:30:17.285Z,10.13
2018-06-09T11:32:46.460Z,10.67
2018-06-09T11:35:16.406Z,9.77
2018-06-09T11:37:45.593Z,14.30
2018-06-09T11:40:15.036Z,11.40
2018-06-09T11:42:44.684Z,20.70
2018-06-09T11:45:13.883Z,9.03
2018-06-09T11:47:43.008Z,12.80
2018-06-09T11:50:13.874Z,9.20
2018-06-09T11:52:43.044Z,10.87
2018-06-09T11:55:13.135Z,15.20
2018-06-09T11:57:42.461Z,9.00
2018-06-09T12:00:11.643Z,10.20
2018-06-09T12:02:40.733Z,14.80
2018-06-09T12:05:09.862Z,15.57
2018-06-09T12:07:38.829Z,14.00
2018-06-09T12:10:07.928Z,7.73
2018-06-09T12:12:37.088Z,14.23
2018-06-09T12:15:07.118Z,12.37
2018-06-09T12:17:36.220Z,12.17
2018-06-09T12:20:05.550Z,8.80
2018-06-09T12:22:34.606Z,7.80
2018-06-09T12:25:04.174Z,11.50
2018-06-09T12:27:33.294Z,10.20
2018-06-09T12:30:02.420Z,12.50
2018-06-09T12:32:31.433Z,10.43
2018-06-09T12:35:00.591Z,11.50
2018-06-09T12:37:29.699Z,8.33
2018-06-09T12:39:58.793Z,8.60
2018-06-09T12:42:28.656Z,14.20
2018-06-09T12:44:57.788Z,11.30
2018-06-09T12:47:26.880Z,7.73
2018-06-09T12:49:55.984Z,8.77
2018-06-09T12:52:25.198Z,11.77
2018-06-09T12:54:54.726Z,10.20
2018-06-09T12:57:23.288Z,11.60
2018-06-09T12:59:52.647Z,11.03
2018-06-09T13:02:22.529Z,9.30
2018-06-09T13:04:52.200Z,15.57
2018-06-09T13:07:21.213Z,13.47
2018-06-09T13:09:50.278Z,11.23
2018-06-09T13:12:19.632Z,12.23
2018-06-09T13:14:49.273Z,7.70
2018-06-09T13:17:18.389Z,8.10
2018-06-09T13:19:47.640Z,13.87
2018-06-09T13:22:16.909Z,19.70
2018-06-09T13:24:46.229Z,9.50
2018-06-09T13:27:15.297Z,10.23
2018-06-09T13:29:44.367Z,10.40
2018-06-09T13:32:13.647Z,11.47
2018-06-09T13:34:42.797Z,11.30
2018-06-09T13:37:11.848Z,11.13
2018-06-09T13:39:41.360Z,18.33
2018-06-09T13:42:11.067Z,7.87
2018-06-09T13:44:40.588Z,8.70
2018-06-09T13:47:09.671Z,7.37
2018-06-09T13:49:39.119Z,6.73
2018-06-09T13:52:08.383Z,14.33
2018-06-09T13:54:37.510Z,12.87
2018-06-09T13:57:06.684Z,5.63
2018-06-09T13:59:35.771Z,6.57
2018-06-09T14:02:05.096Z,8.70
2018-06-09T14:04:34.722Z,11.50
2018-06-09T14:07:03.985Z,7.57
2018-06-09T14:09:33.384Z,6.33
2018-06-09T14:12:02.481Z,7.60
2018-06-09T14:14:32.018Z,9.73
2018-06-09T14:17:01.180Z,7.30
2018-06-09T14:19:30.612Z,14.33
2018-06-09T14:21:59.773Z,8.13
2018-06-09T14:24:29.034Z,6.50
2018-06-09T14:26:58.139Z,11.30
2018-06-09T14:29:27.063Z,7.43
2018-06-09T14:31:56.057Z,10.03
2018-06-09T14:34:25.149Z,16.53
2018-06-09T14:36:55.018Z,9.97
2018-06-09T14:39:24.148Z,9.63
2018-06-09T14:41:53.574Z,7.60
2018-06-09T14:44:22.662Z,9.67
2018-06-09T14:46:51.645Z,10.40
2018-06-09T14:49:21.094Z,16.40
2018-06-09T14:51:49.789Z,11.00
2018-06-09T14:54:18.354Z,7.27
2018-06-09T14:56:47.515Z,13.33
2018-06-09T14:59:16.728Z,7.40
2018-06-09T15:01:46.212Z,5.97
2018-06-09T15:04:16.044Z,18.47
2018-06-09T15:06:45.128Z,12.20
2018-06-09T15:09:14.833Z,8.53
2018-06-09T15:11:43.928Z,16.60
2018-06-09T15:14:13.028Z,6.70
2018-06-09T15:16:42.688Z,11.40
2018-06-09T15:19:12.010Z,8.60
2018-06-09T15:21:41.190Z,7.53
2018-06-09T15:24:10.415Z,14.93
2018-06-09T15:26:40.078Z,15.03
2018-06-09T15:29:09.847Z,14.77
2018-06-09T15:31:39.129Z,20.00
2018-06-09T15:34:08.661Z,10.93
2018-06-09T15:36:37.852Z,8.43
2018-06-09T15:39:08.449Z,13.23
2018-06-09T15:41:38.073Z,10.13
2018-06-09T15:44:08.939Z,14.27
2018-06-09T15:46:38.183Z,10.13
2018-06-09T15:49:07.536Z,7.07
2018-06-09T15:51:36.644Z,12.17
2018-06-09T15:54:05.925Z,12.67
2018-06-09T15:56:35.373Z,19.30
2018-06-09T15:59:04.496Z,13.70
2018-06-09T16:01:33.720Z,7.80
2018-06-09T16:04:03.945Z,10.77
2018-06-09T16:06:33.853Z,8.23
2018-06-09T16:09:03.212Z,15.87
2018-06-09T16:11:32.749Z,12.03
2018-06-09T16:14:02.181Z,27.53
2018-06-09T16:16:31.501Z,11.10
2018-06-09T16:19:01.329Z,14.07
2018-06-09T16:21:30.340Z,8.97
2018-06-09T16:23:59.502Z,11.00
2018-06-09T16:26:28.833Z,17.33
2018-06-09T16:28:57.944Z,14.77
2018-06-09T16:31:27.097Z,12.83
2018-06-09T16:33:56.158Z,15.03
2018-06-09T16:36:25.281Z,17.53
2018-06-09T16:38:54.327Z,11.13
2018-06-09T16:41:23.510Z,10.80
2018-06-09T16:43:52.605Z,14.30
2018-06-09T16:46:21.636Z,13.93
2018-06-09T16:48:51.000Z,14.37
2018-06-09T16:51:20.376Z,19.90
2018-06-09T16:53:50.189Z,16.60
2018-06-09T16:56:19.204Z,26.40
2018-06-09T16:58:48.345Z,17.93
2018-06-09T17:01:17.504Z,18.87
2018-06-09T17:03:46.646Z,16.87
2018-06-09T17:06:16.016Z,13.30
2018-06-09T17:08:45.577Z,21.40
2018-06-09T17:11:14.698Z,22.03
2018-06-09T17:13:43.920Z,14.10
2018-06-09T17:16:13.078Z,15.07
2018-06-09T17:18:42.112Z,24.47
2018-06-09T17:21:11.208Z,17.00
2018-06-09T17:23:41.033Z,15.30
2018-06-09T17:26:10.136Z,26.73
2018-06-09T17:28:39.208Z,23.13
2018-06-09T17:31:08.407Z,15.00
2018-06-09T17:33:37.938Z,19.57
2018-06-09T17:36:07.106Z,15.53
2018-06-09T17:38:36.733Z,22.17
2018-06-09T17:41:05.711Z,25.30
2018-06-09T17:43:34.732Z,20.87
2018-06-09T17:46:03.681Z,16.43
2018-06-09T17:48:32.773Z,22.37
2018-06-09T17:51:01.857Z,21.97
2018-06-09T17:53:31.320Z,20.63
2018-06-09T17:56:00.361Z,16.70
2018-06-09T17:58:29.999Z,13.03
2018-06-09T18:00:59.084Z,20.00
2018-06-09T18:03:28.162Z,18.13
2018-06-09T18:05:57.592Z,15.53
2018-06-09T18:08:26.659Z,17.07
2018-06-09T18:10:56.204Z,19.90
2018-06-09T18:13:25.888Z,9.37
2018-06-09T18:15:54.973Z,21.27
2018-06-09T18:18:24.491Z,22.10
2018-06-09T18:20:53.564Z,19.63
2018-06-09T18:23:23.628Z,12.93
2018-06-09T18:25:53.000Z,16.43
2018-06-09T18:28:21.994Z,10.33
2018-06-09T18:30:50.996Z,18.70
2018-06-09T18:33:20.090Z,33.60
2018-06-09T18:35:49.064Z,19.33
2018-06-09T18:38:18.173Z,19.83
2018-06-09T18:40:47.378Z,17.10
2018-06-09T18:43:17.117Z,18.73
2018-06-09T18:45:46.166Z,17.87
2018-06-09T18:48:15.301Z,26.10
2018-06-09T18:50:44.870Z,35.60
2018-06-09T18:53:14.014Z,21.17
2018-06-09T18:55:43.160Z,17.33
2018-06-09T18:58:12.341Z,18.83
2018-06-09T19:00:41.450Z,19.60
2018-06-09T19:03:11.049Z,23.60
2018-06-09T19:05:40.192Z,15.83
2018-06-09T19:08:09.235Z,16.20
2018-06-09T19:10:38.265Z,15.23
2018-06-09T19:13:07.836Z,16.90
2018-06-09T19:15:36.883Z,21.37
2018-06-09T19:18:06.062Z,20.63
2018-06-09T19:20:35.123Z,25.50
2018-06-09T19:23:04.335Z,20.33
2018-06-09T19:25:33.337Z,20.40
2018-06-09T19:28:02.428Z,19.53
2018-06-09T19:30:31.611Z,26.77
2018-06-09T19:33:00.973Z,20.87
2018-06-09T19:35:30.020Z,32.70
2018-06-09T19:37:59.111Z,30.97
2018-06-09T19:40:28.225Z,37.60
2018-06-09T19:42:57.684Z,52.13
2018-06-09T19:45:26.984Z,35.27
2018-06-09T19:47:56.113Z,53.83
2018-06-09T19:50:25.232Z,30.30
2018-06-09T19:52:54.406Z,30.07
2018-06-09T19:55:23.474Z,31.10
2018-06-09T19:57:52.597Z,20.20
2018-06-09T20:00:22.113Z,17.60
2018-06-09T20:02:51.623Z,20.33
2018-06-09T20:05:20.759Z,17.83
2018-06-09T20:07:49.937Z,20.30
2018-06-09T20:10:19.069Z,18.00
2018-06-09T20:12:48.161Z,21.73
2018-06-09T20:15:17.444Z,22.53
2018-06-09T20:17:46.588Z,25.10
2018-06-09T20:20:15.696Z,17.83
2018-06-09T20:22:44.747Z,17.43
2018-06-09T20:25:14.215Z,22.00
2018-06-09T20:27:42.871Z,25.23
2018-06-09T20:30:12.489Z,19.07
2018-06-09T20:32:41.760Z,17.90
2018-06-09T20:35:11.237Z,15.00
2018-06-09T20:37:40.815Z,26.30
2018-06-09T20:40:10.204Z,19.13
2018-06-09T20:42:38.970Z,30.63
2018-06-09T20:45:08.753Z,15.87
2018-06-09T20:47:38.346Z,18.97
2018-06-09T20:50:07.716Z,18.87
2018-06-09T20:52:37.394Z,20.60
2018-06-09T20:55:06.490Z,22.27
2018-06-09T20:57:36.256Z,29.93
2018-06-09T21:00:05.633Z,27.63
2018-06-09T21:02:36.622Z,22.80
2018-06-09T21:05:06.688Z,22.03
2018-06-09T21:07:37.422Z,13.30
2018-06-09T21:10:07.631Z,18.37
2018-06-09T21:12:37.249Z,28.50
2018-06-09T21:15:07.139Z,28.23
2018-06-09T21:17:36.676Z,18.20
2018-06-09T21:20:06.578Z,16.97
2018-06-09T21:22:35.901Z,17.20
2018-06-09T21:25:05.557Z,15.57
2018-06-09T21:27:39.666Z,21.53
2018-06-09T21:30:13.871Z,19.80
2018-06-09T21:32:44.244Z,21.80
2018-06-09T21:35:29.652Z,32.37
2018-06-09T21:38:03.865Z,51.07
2018-06-09T21:40:38.256Z,31.77
2018-06-09T21:43:12.549Z,22.83
2018-06-09T21:45:47.404Z,28.70
2018-06-09T21:48:16.990Z,30.93
2018-06-09T21:50:46.071Z,25.23
2018-06-09T21:53:15.403Z,29.63
2018-06-09T21:55:44.550Z,31.10
2018-06-09T21:58:13.666Z,32.60
2018-06-09T22:00:42.904Z,31.07
2018-06-09T22:03:12.230Z,34.60
2018-06-09T22:05:41.353Z,48.97
2018-06-09T22:08:10.564Z,29.83
2018-06-09T22:10:39.929Z,37.53
2018-06-09T22:13:09.070Z,31.97
2018-06-09T22:15:38.790Z,29.93
2018-06-09T22:18:07.940Z,31.80
2018-06-09T22:20:38.217Z,19.40
2018-06-09T22:23:08.403Z,37.27
2018-06-09T22:26:44.533Z,26.40
2018-06-09T22:29:13.680Z,22.67
2018-06-09T22:31:43.005Z,20.73
2018-06-09T22:34:12.489Z,20.53
2018-06-09T22:36:41.556Z,26.07
2018-06-09T22:39:10.745Z,22.40
2018-06-09T22:41:39.869Z,25.23
2018-06-09T22:44:09.672Z,21.43
2018-06-09T22:46:38.897Z,16.00
2018-06-09T22:49:07.964Z,24.60
2018-06-09T22:51:37.440Z,26.60
2018-06-09T22:54:06.536Z,24.70
2018-06-09T22:56:35.634Z,23.40
2018-06-09T22:59:04.903Z,28.47
2018-06-09T23:01:34.129Z,32.43
2018-06-09T23:04:03.899Z,37.60
2018-06-09T23:06:32.982Z,28.60
2018-06-09T23:09:02.206Z,33.43
2018-06-09T23:11:31.331Z,23.30
2018-06-09T23:14:01.247Z,33.60
2018-06-09T23:16:30.365Z,25.23
2018-06-09T23:18:59.460Z,32.57
2018-06-09T23:21:28.608Z,21.13
2018-06-09T23:23:57.729Z,29.83
2018-06-09T23:26:26.897Z,30.97
2018-06-09T23:28:56.137Z,34.73
2018-06-09T23:31:25.021Z,30.33
2018-06-09T23:33:54.157Z,34.23
2018-06-09T23:36:23.669Z,21.00
2018-06-09T23:38:53.163Z,31.23
2018-06-09T23:41:21.847Z,25.50
2018-06-09T23:43:50.948Z,27.90
2018-06-09T23:46:20.631Z,25.87
2018-06-09T23:48:49.613Z,23.03
2018-06-09T23:51:19.065Z,23.87
2018-06-09T23:53:48.226Z,25.83
2018-06-09T23:56:17.327Z,25.47
2018-06-09T23:58:46.814Z,28.80
